Time;durP1;ratioP1;P1;durP2;ratioP2;P2;SDS_P1;SDS_P2;PMS_P1;PMS_P2;Temp;Humidity;BMP_temperature;BMP_pressure;BME280_temperature;BME280_humidity;BME280_pressure;Samples;Min_cycle;Max_cycle;Signal;HPM_P1;HPM_P2
2024/02/22 00:01:05;;;;;;;0.57;0.30;;;12.90;1.00;;;;;;5100077;28;20426;-60
2024/02/22 00:03:33;;;;;;;0.70;0.30;;;12.90;1.00;;;;;;5096978;28;20432;-60
2024/02/22 00:06:00;;;;;;;0.80;0.30;;;12.80;1.00;;;;;;5096819;28;20789;-60
2024/02/22 00:08:27;;;;;;;1.38;0.30;;;12.80;1.00;;;;;;5096950;28;20665;-60
2024/02/22 00:10:55;;;;;;;0.90;0.30;;;12.70;1.00;;;;;;5096117;28;20435;-60
2024/02/22 00:13:22;;;;;;;0.70;0.38;;;12.70;1.00;;;;;;5087097;28;20479;-60
2024/02/22 00:15:49;;;;;;;0.60;0.30;;;12.70;1.00;;;;;;5075640;28;20431;-60
2024/02/22 00:18:16;;;;;;;0.60;0.30;;;12.70;1.00;;;;;;5095444;28;20437;-60
2024/02/22 00:20:45;;;;;;;0.70;0.30;;;12.60;1.00;;;;;;5095337;28;20430;-60
2024/02/22 00:23:12;;;;;;;0.50;0.30;;;12.50;1.00;;;;;;5096381;28;20490;-61
2024/02/22 00:25:39;;;;;;;0.50;0.28;;;12.50;1.00;;;;;;5096101;28;20429;-60
2024/02/22 00:28:06;;;;;;;0.80;0.40;;;12.50;1.00;;;;;;5096213;28;20684;-60
2024/02/22 00:30:33;;;;;;;0.70;0.30;;;12.50;1.00;;;;;;5095771;28;20772;-60
2024/02/22 00:33:00;;;;;;;3.03;0.40;;;12.40;1.00;;;;;;5095621;28;20707;-60
2024/02/22 00:35:28;;;;;;;0.90;0.30;;;12.40;1.00;;;;;;5094014;28;20426;-61
2024/02/22 00:37:57;;;;;;;0.70;0.30;;;12.40;1.00;;;;;;5095679;28;20439;-60
2024/02/22 00:40:25;;;;;;;0.60;0.30;;;12.30;1.00;;;;;;5095960;28;20823;-60
2024/02/22 00:42:52;;;;;;;0.60;0.30;;;12.30;1.00;;;;;;5096694;28;20700;-60
2024/02/22 00:45:19;;;;;;;0.50;0.30;;;12.20;1.00;;;;;;5095936;28;20414;-60
2024/02/22 00:47:46;;;;;;;0.50;0.30;;;12.30;1.00;;;;;;5095406;28;20422;-60
2024/02/22 00:50:13;;;;;;;0.53;0.30;;;12.20;1.00;;;;;;5095975;28;20463;-60
2024/02/22 00:52:40;;;;;;;1.90;0.40;;;12.10;1.00;;;;;;5095973;28;20422;-60
2024/02/22 00:55:09;;;;;;;0.50;0.30;;;12.20;1.00;;;;;;5095981;28;20429;-60
2024/02/22 00:57:36;;;;;;;0.60;0.30;;;12.10;1.00;;;;;;5094163;28;20422;-60
2024/02/22 01:00:04;;;;;;;0.50;0.30;;;12.00;1.00;;;;;;5093777;28;20426;-60
2024/02/22 01:02:32;;;;;;;0.60;0.30;;;12.00;1.00;;;;;;5082473;28;20717;-60
2024/02/22 01:04:59;;;;;;;0.60;0.30;;;12.00;1.00;;;;;;5073555;28;20473;-61
2024/02/22 01:07:26;;;;;;;0.50;0.30;;;12.00;1.00;;;;;;5073427;28;20841;-61
2024/02/22 01:09:53;;;;;;;0.70;0.20;;;11.90;1.00;;;;;;5073980;28;20427;-60
2024/02/22 01:12:22;;;;;;;0.60;0.30;;;11.90;1.00;;;;;;5080413;28;20458;-60
2024/02/22 01:14:49;;;;;;;0.70;0.30;;;11.80;1.00;;;;;;5085954;28;20440;-61
2024/02/22 01:17:16;;;;;;;0.50;0.30;;;11.80;1.00;;;;;;5080954;28;20635;-60
2024/02/22 01:19:44;;;;;;;0.80;0.33;;;11.70;1.00;;;;;;5075124;28;20695;-60
2024/02/22 01:22:11;;;;;;;0.50;0.30;;;11.70;1.00;;;;;;5075140;28;20522;-61
2024/02/22 01:24:38;;;;;;;0.60;0.30;;;11.70;1.00;;;;;;5084721;28;20518;-61
2024/02/22 01:27:07;;;;;;;0.60;0.38;;;11.60;1.00;;;;;;5094639;28;20426;-61
2024/02/22 01:29:35;;;;;;;0.53;0.30;;;11.60;1.00;;;;;;5095629;28;20497;-61
2024/02/22 01:32:02;;;;;;;0.60;0.30;;;11.50;1.00;;;;;;5095600;28;20422;-60
2024/02/22 01:34:29;;;;;;;0.60;0.30;;;11.50;22.70;;;;;;5095549;28;20838;-61
2024/02/22 01:36:57;;;;;;;0.90;0.30;;;11.50;57.50;;;;;;5095524;28;20468;-61
2024/02/22 01:39:24;;;;;;;0.70;0.30;;;11.50;99.00;;;;;;5095534;28;20417;-61
2024/02/22 01:41:51;;;;;;;0.70;0.40;;;11.40;99.90;;;;;;5111922;28;20423;-61
2024/02/22 01:44:18;;;;;;;0.60;0.30;;;11.40;99.90;;;;;;5117044;28;20424;-60
2024/02/22 01:46:46;;;;;;;0.65;0.30;;;11.40;99.90;;;;;;5112583;28;20812;-61
2024/02/22 01:49:13;;;;;;;0.70;0.30;;;11.30;99.90;;;;;;5100157;28;20437;-61
2024/02/22 01:51:40;;;;;;;0.50;0.30;;;11.30;99.90;;;;;;5099647;28;20421;-61
2024/02/22 01:54:07;;;;;;;0.98;0.20;;;11.30;99.90;;;;;;5100240;28;20414;-61
2024/02/22 01:56:34;;;;;;;1.10;0.30;;;11.20;99.90;;;;;;5099546;28;20421;-61
2024/02/22 01:59:02;;;;;;;0.57;0.30;;;11.30;99.90;;;;;;5099338;28;20421;-61
2024/02/22 02:01:29;;;;;;;0.50;0.30;;;11.30;99.90;;;;;;5098952;28;20448;-60
2024/02/22 02:03:58;;;;;;;0.60;0.30;;;11.30;99.90;;;;;;5098926;28;20449;-61
2024/02/22 02:06:25;;;;;;;0.60;0.30;;;11.30;1.00;;;;;;5098548;28;20808;-61
2024/02/22 02:08:55;;;;;;;0.50;0.30;;;11.20;1.00;;;;;;5098908;28;20800;-61
2024/02/22 02:11:22;;;;;;;0.60;0.30;;;11.20;1.00;;;;;;5099119;28;20483;-61
2024/02/22 02:13:49;;;;;;;0.80;0.30;;;11.20;1.00;;;;;;5098690;28;20417;-61
2024/02/22 02:16:16;;;;;;;0.90;0.30;;;11.10;1.00;;;;;;5099164;28;20444;-61
2024/02/22 02:18:43;;;;;;;0.70;0.30;;;11.20;1.00;;;;;;5098865;28;20421;-61
2024/02/22 02:21:20;;;;;;;1.30;0.30;;;11.20;1.00;;;;;;5107845;28;20440;-61
2024/02/22 02:23:58;;;;;;;0.52;0.30;;;11.20;9.10;;;;;;5104181;28;20472;-60
2024/02/22 02:26:26;;;;;;;0.50;0.30;;;11.10;99.90;;;;;;5078877;28;20423;-61
2024/02/22 02:28:53;;;;;;;0.60;0.30;;;11.20;99.90;;;;;;5078546;28;20517;-61
2024/02/22 02:31:21;;;;;;;0.90;0.20;;;11.20;83.40;;;;;;5078446;28;20412;-59
2024/02/22 02:33:48;;;;;;;0.40;0.20;;;11.00;99.90;;;;;;5078579;28;20431;-61
2024/02/22 02:36:15;;;;;;;0.60;0.30;;;11.10;99.90;;;;;;5078238;28;20415;-61
2024/02/22 02:38:42;;;;;;;0.43;0.20;;;11.20;99.90;;;;;;5078494;28;20423;-61
2024/02/22 02:41:09;;;;;;;0.40;0.20;;;11.00;99.90;;;;;;5078238;28;20443;-61
2024/02/22 02:43:38;;;;;;;0.40;0.20;;;11.00;99.90;;;;;;5080307;28;20436;-61
2024/02/22 02:46:05;;;;;;;0.65;0.30;;;11.00;1.00;;;;;;5098117;28;20435;-62
2024/02/22 02:48:32;;;;;;;0.50;0.20;;;11.00;99.90;;;;;;5097697;28;20426;-61
2024/02/22 02:50:59;;;;;;;0.40;0.20;;;11.00;99.90;;;;;;5098092;28;20419;-59
2024/02/22 02:53:26;;;;;;;0.50;0.20;;;11.00;1.00;;;;;;5096165;28;20425;-59
2024/02/22 02:55:54;;;;;;;0.40;0.20;;;10.90;1.00;;;;;;5096877;28;20422;-62
2024/02/22 02:58:21;;;;;;;0.40;0.20;;;10.90;99.90;;;;;;5098213;28;20824;-59
2024/02/22 03:00:49;;;;;;;0.40;0.20;;;10.90;99.90;;;;;;5098295;28;20846;-58
2024/02/22 03:03:16;;;;;;;0.50;0.20;;;10.80;1.00;;;;;;5098105;28;20417;-60
2024/02/22 03:05:43;;;;;;;0.40;0.20;;;10.80;1.00;;;;;;5097641;28;20402;-61
2024/02/22 03:08:10;;;;;;;0.50;0.20;;;10.80;99.90;;;;;;5096872;28;20437;-61
2024/02/22 03:10:37;;;;;;;0.80;0.20;;;10.80;99.90;;;;;;5098081;28;20436;-61
2024/02/22 03:13:08;;;;;;;0.40;0.13;;;10.70;1.00;;;;;;5085874;28;20431;-61
2024/02/22 03:15:36;;;;;;;0.40;0.20;;;10.80;99.90;;;;;;5081758;28;20440;-61
2024/02/22 03:18:07;;;;;;;0.40;0.20;;;10.70;1.00;;;;;;5087047;28;20422;-61
2024/02/22 03:20:34;;;;;;;0.40;0.20;;;10.70;1.00;;;;;;5097558;28;20820;-61
2024/02/22 03:23:02;;;;;;;0.60;0.20;;;10.60;1.00;;;;;;5097891;28;20431;-59
2024/02/22 03:25:29;;;;;;;0.50;0.20;;;10.60;1.00;;;;;;5097517;28;20429;-59
2024/02/22 03:27:58;;;;;;;0.40;0.20;;;10.50;1.00;;;;;;5097658;28;20422;-62
2024/02/22 03:30:26;;;;;;;0.40;0.20;;;10.60;99.90;;;;;;5097936;28;20420;-61
2024/02/22 03:32:53;;;;;;;0.90;0.20;;;10.50;99.90;;;;;;5097322;28;20960;-59
2024/02/22 03:35:22;;;;;;;0.50;0.20;;;10.50;1.00;;;;;;5093797;28;20434;-60
2024/02/22 03:37:49;;;;;;;0.50;0.20;;;10.50;99.90;;;;;;5096765;28;20422;-60
2024/02/22 03:40:17;;;;;;;0.60;0.20;;;10.40;1.00;;;;;;5096704;28;20516;-59
2024/02/22 03:42:44;;;;;;;0.40;0.20;;;10.40;1.00;;;;;;5097293;28;20819;-60
2024/02/22 03:45:11;;;;;;;0.60;0.20;;;10.40;1.00;;;;;;5080575;28;20416;-60
2024/02/22 03:47:38;;;;;;;0.80;0.20;;;10.30;1.00;;;;;;5094421;28;20803;-60
2024/02/22 03:50:06;;;;;;;0.60;0.20;;;10.30;1.00;;;;;;5096266;28;20422;-59
2024/02/22 03:52:34;;;;;;;0.63;0.30;;;10.30;1.00;;;;;;5096496;28;20429;-60
2024/02/22 03:55:02;;;;;;;0.60;0.30;;;10.40;1.00;;;;;;5096475;28;20487;-61
2024/02/22 03:57:29;;;;;;;0.80;0.30;;;10.40;1.00;;;;;;5095352;28;20482;-60
2024/02/22 03:59:56;;;;;;;0.50;0.30;;;10.30;1.00;;;;;;5094899;28;20733;-61
2024/02/22 04:02:23;;;;;;;0.40;0.20;;;10.30;1.00;;;;;;5095942;28;20422;-61
2024/02/22 04:04:51;;;;;;;0.60;0.20;;;10.10;1.00;;;;;;5095732;28;20423;-60
2024/02/22 04:07:18;;;;;;;0.40;0.20;;;10.00;1.00;;;;;;5095902;28;20453;-60
2024/02/22 04:09:46;;;;;;;0.55;0.22;;;10.00;1.00;;;;;;5096138;28;20421;-61
2024/02/22 04:12:13;;;;;;;0.60;0.20;;;10.10;1.00;;;;;;5095357;28;20413;-61
2024/02/22 04:14:40;;;;;;;0.50;0.30;;;10.20;1.00;;;;;;5094961;28;20807;-60
2024/02/22 04:17:07;;;;;;;0.40;0.20;;;10.20;1.00;;;;;;5096050;28;20425;-61
2024/02/22 04:19:34;;;;;;;0.55;0.20;;;10.20;1.00;;;;;;5096698;28;20433;-61
2024/02/22 04:22:02;;;;;;;0.90;0.20;;;10.00;1.00;;;;;;5095669;28;20437;-61
2024/02/22 04:24:29;;;;;;;0.70;0.20;;;10.00;1.00;;;;;;5095656;28;20491;-60
2024/02/22 04:26:59;;;;;;;0.50;0.30;;;9.90;1.00;;;;;;5095612;28;20432;-60
2024/02/22 04:29:26;;;;;;;0.60;0.30;;;10.00;1.00;;;;;;5095655;28;20426;-61
2024/02/22 04:31:53;;;;;;;1.00;0.25;;;10.00;1.00;;;;;;5094507;28;20410;-60
2024/02/22 04:34:20;;;;;;;0.55;0.30;;;10.00;1.00;;;;;;5096063;28;20877;-60
2024/02/22 04:36:47;;;;;;;1.10;0.20;;;10.00;1.00;;;;;;5096218;28;20905;-61
2024/02/22 04:39:15;;;;;;;0.40;0.20;;;10.00;1.00;;;;;;5094544;28;20458;-61
2024/02/22 04:41:42;;;;;;;0.52;0.20;;;9.90;1.00;;;;;;5095119;28;20471;-61
2024/02/22 04:44:10;;;;;;;0.52;0.20;;;9.90;9.20;;;;;;5096149;28;20426;-61
2024/02/22 04:46:38;;;;;;;0.40;0.20;;;9.90;8.80;;;;;;5095609;28;20422;-61
2024/02/22 04:49:06;;;;;;;0.60;0.20;;;9.90;18.60;;;;;;5095513;28;20429;-61
2024/02/22 04:51:33;;;;;;;0.40;0.20;;;9.90;6.50;;;;;;5093624;28;20418;-61
2024/02/22 04:54:01;;;;;;;0.80;0.20;;;9.90;10.00;;;;;;5093756;28;20425;-61
2024/02/22 04:56:29;;;;;;;0.40;0.20;;;10.00;1.60;;;;;;5095006;28;20438;-61
2024/02/22 04:58:55;;;;;;;0.40;0.20;;;10.00;7.70;;;;;;5095772;28;20457;-61
2024/02/22 05:01:26;;;;;;;0.40;0.20;;;10.00;11.90;;;;;;5095103;28;20499;-61
2024/02/22 05:03:53;;;;;;;0.60;0.20;;;10.00;13.10;;;;;;5095132;28;20426;-60
2024/02/22 05:06:20;;;;;;;0.50;0.20;;;9.90;19.00;;;;;;5095423;28;20709;-61
2024/02/22 05:08:47;;;;;;;0.40;0.20;;;9.90;30.90;;;;;;5095655;28;20440;-62
2024/02/22 05:11:14;;;;;;;0.50;0.20;;;9.90;24.40;;;;;;5095784;28;20421;-61
2024/02/22 05:13:42;;;;;;;0.50;0.20;;;10.10;25.70;;;;;;5095563;28;20708;-60
2024/02/22 05:16:09;;;;;;;0.47;0.20;;;10.00;26.80;;;;;;5095475;28;20453;-61
2024/02/22 05:18:38;;;;;;;1.50;0.20;;;10.00;45.90;;;;;;5095163;28;20499;-61
2024/02/22 05:21:06;;;;;;;0.80;0.20;;;10.00;44.00;;;;;;5080361;28;20681;-60
2024/02/22 05:23:33;;;;;;;0.50;0.20;;;9.90;61.20;;;;;;5095039;28;20847;-60
2024/02/22 05:26:00;;;;;;;0.40;0.20;;;9.90;76.70;;;;;;5095029;28;20426;-60
2024/02/22 05:28:27;;;;;;;0.40;0.20;;;9.80;99.90;;;;;;5095148;28;20425;-61
2024/02/22 05:30:54;;;;;;;0.60;0.20;;;9.80;99.90;;;;;;5095278;28;20417;-62
2024/02/22 05:33:21;;;;;;;0.43;0.20;;;9.80;99.90;;;;;;5094457;28;20414;-61
2024/02/22 05:35:50;;;;;;;0.50;0.20;;;9.80;99.90;;;;;;5094560;28;20410;-61
2024/02/22 05:38:17;;;;;;;0.50;0.20;;;9.80;99.90;;;;;;5094865;28;20429;-61
2024/02/22 05:40:44;;;;;;;0.50;0.20;;;9.80;99.90;;;;;;5094956;28;20442;-62
2024/02/22 05:43:11;;;;;;;0.50;0.20;;;9.70;99.90;;;;;;5094368;28;20437;-62
2024/02/22 05:45:44;;;;;;;0.40;0.20;;;9.80;99.90;;;;;;5088975;28;20429;-62
2024/02/22 05:48:12;;;;;;;0.40;0.20;;;9.70;99.90;;;;;;5095064;28;20868;-62
2024/02/22 05:50:39;;;;;;;0.40;0.20;;;9.70;99.90;;;;;;5095500;28;20410;-61
2024/02/22 05:53:09;;;;;;;0.40;0.20;;;9.70;99.90;;;;;;5095258;28;20723;-60
2024/02/22 05:55:36;;;;;;;0.45;0.20;;;9.70;99.90;;;;;;5094496;28;20468;-62
2024/02/22 05:58:04;;;;;;;0.70;0.20;;;9.70;99.90;;;;;;5093135;28;20429;-60
2024/02/22 06:00:32;;;;;;;0.70;0.20;;;9.60;99.90;;;;;;5093994;28;20531;-59
2024/02/22 06:02:59;;;;;;;0.57;0.30;;;9.60;99.90;;;;;;5093100;28;20766;-60
2024/02/22 06:05:26;;;;;;;0.50;0.28;;;9.70;99.90;;;;;;5093007;28;20840;-59
2024/02/22 06:07:54;;;;;;;0.50;0.20;;;9.80;99.90;;;;;;5092555;28;20843;-59
2024/02/22 06:10:23;;;;;;;0.50;0.20;;;9.80;99.90;;;;;;5092669;28;20429;-59
2024/02/22 06:12:50;;;;;;;0.93;0.30;;;9.80;99.90;;;;;;5093372;28;20414;-59
2024/02/22 06:15:17;;;;;;;0.40;0.20;;;9.70;99.90;;;;;;5077718;28;20544;-59
2024/02/22 06:17:44;;;;;;;0.45;0.20;;;9.60;99.90;;;;;;5081934;28;20428;-59
2024/02/22 06:20:12;;;;;;;0.50;0.20;;;9.60;99.90;;;;;;5092341;28;20437;-60
2024/02/22 06:22:39;;;;;;;0.50;0.30;;;9.70;99.90;;;;;;5091911;28;20473;-59
2024/02/22 06:25:07;;;;;;;0.60;0.20;;;9.70;99.90;;;;;;5093577;28;20429;-59
2024/02/22 06:27:36;;;;;;;1.00;0.30;;;9.80;99.90;;;;;;5095300;28;20425;-59
2024/02/22 06:30:06;;;;;;;0.50;0.20;;;9.90;99.90;;;;;;5096657;28;20869;-59
2024/02/22 06:32:35;;;;;;;0.40;0.20;;;9.90;99.90;;;;;;5091286;28;20528;-59
2024/02/22 06:35:03;;;;;;;0.53;0.20;;;9.80;99.90;;;;;;5096800;28;20435;-59
2024/02/22 06:37:30;;;;;;;0.60;0.30;;;9.70;99.90;;;;;;5096932;28;20839;-59
2024/02/22 06:39:57;;;;;;;0.50;0.20;;;9.80;99.90;;;;;;5096869;28;20441;-58
2024/02/22 06:42:24;;;;;;;0.47;0.20;;;9.80;99.90;;;;;;5102353;28;20433;-59
2024/02/22 06:44:53;;;;;;;0.38;0.20;;;9.80;99.90;;;;;;5095151;28;20430;-59
2024/02/22 06:47:20;;;;;;;0.45;0.20;;;9.80;99.90;;;;;;5092889;28;20437;-58
2024/02/22 06:49:47;;;;;;;0.30;0.20;;;9.70;99.90;;;;;;5085638;28;20450;-58
2024/02/22 06:52:15;;;;;;;0.50;0.20;;;9.80;99.90;;;;;;5076988;28;20435;-58
2024/02/22 06:54:42;;;;;;;0.40;0.20;;;9.70;99.90;;;;;;5076105;28;20710;-58
2024/02/22 06:57:09;;;;;;;0.50;0.20;;;9.70;99.90;;;;;;5078377;28;20434;-58
2024/02/22 06:59:36;;;;;;;0.80;0.20;;;9.70;99.90;;;;;;5091935;28;20423;-59
2024/02/22 07:02:06;;;;;;;0.40;0.20;;;9.80;99.90;;;;;;5098303;28;20438;-59
2024/02/22 07:04:33;;;;;;;0.60;0.30;;;9.80;99.90;;;;;;5098525;28;20812;-59
2024/02/22 07:07:00;;;;;;;0.50;0.20;;;9.80;99.90;;;;;;5089911;28;20889;-58
2024/02/22 07:09:27;;;;;;;0.40;0.20;;;9.80;99.90;;;;;;5076385;28;20435;-59
2024/02/22 07:11:57;;;;;;;0.80;0.30;;;9.90;99.90;;;;;;5076518;28;20493;-58
2024/02/22 07:14:24;;;;;;;1.00;0.30;;;10.00;99.90;;;;;;5086754;28;20425;-58
2024/02/22 07:16:52;;;;;;;0.60;0.30;;;9.90;99.90;;;;;;5096966;28;20708;-58
2024/02/22 07:19:20;;;;;;;0.60;0.30;;;9.90;99.90;;;;;;5095261;28;20445;-58
2024/02/22 07:21:47;;;;;;;0.85;0.40;;;9.80;99.90;;;;;;5094547;28;20434;-59
2024/02/22 07:24:15;;;;;;;0.60;0.30;;;9.80;99.90;;;;;;5095806;28;20799;-57
2024/02/22 07:26:42;;;;;;;1.20;0.50;;;9.80;99.90;;;;;;5096063;28;20425;-59
2024/02/22 07:29:09;;;;;;;1.42;0.50;;;9.90;99.90;;;;;;5093298;28;20430;-59
2024/02/22 07:34:08;;;;;;;0.90;0.40;;;10.00;99.90;;;;;;5154126;27;20334;-59
2024/02/22 07:36:36;;;;;;;0.93;0.50;;;10.00;99.90;;;;;;5154606;27;20457;-59
2024/02/22 07:39:03;;;;;;;1.10;0.50;;;10.00;99.90;;;;;;5153842;27;20509;-60
2024/02/22 07:41:30;;;;;;;0.70;0.40;;;9.90;99.90;;;;;;5154870;27;20516;-59
2024/02/22 07:43:57;;;;;;;1.15;0.40;;;10.00;99.90;;;;;;5155529;27;20441;-59
2024/02/22 07:46:24;;;;;;;1.67;0.50;;;10.00;99.90;;;;;;5154520;27;20417;-59
2024/02/22 07:48:51;;;;;;;0.90;0.40;;;9.90;99.90;;;;;;5154771;27;20453;-58
2024/02/22 07:51:19;;;;;;;0.90;0.50;;;10.00;99.90;;;;;;5151972;27;20522;-55
2024/02/22 07:53:46;;;;;;;0.90;0.40;;;9.90;99.90;;;;;;5132700;27;20842;-59
2024/02/22 07:56:13;;;;;;;0.68;0.30;;;10.00;99.90;;;;;;5145495;27;20425;-59
2024/02/22 07:58:47;;;;;;;1.30;0.35;;;10.00;99.90;;;;;;5141417;27;20594;-59
2024/02/22 08:01:15;;;;;;;0.68;0.30;;;10.00;99.90;;;;;;5148611;27;20444;-59
2024/02/22 08:03:43;;;;;;;0.73;0.40;;;10.00;99.90;;;;;;5155230;27;20418;-59
2024/02/22 08:06:10;;;;;;;1.08;0.30;;;10.10;99.90;;;;;;5154120;27;20915;-59
2024/02/22 08:08:39;;;;;;;0.52;0.30;;;10.10;99.90;;;;;;5153984;27;20424;-59
2024/02/22 08:11:06;;;;;;;0.52;0.30;;;10.10;99.90;;;;;;5152837;27;20418;-59
2024/02/22 08:13:33;;;;;;;0.50;0.20;;;10.10;99.90;;;;;;5151697;27;20505;-59
2024/02/22 08:16:05;;;;;;;0.40;0.20;;;10.20;99.90;;;;;;5152377;27;20406;-59
2024/02/22 08:18:32;;;;;;;0.70;0.20;;;10.20;99.90;;;;;;5152976;27;20436;-59
2024/02/22 08:20:59;;;;;;;0.95;0.22;;;10.10;99.90;;;;;;5152007;27;20516;-58
2024/02/22 08:23:27;;;;;;;0.50;0.20;;;10.10;99.90;;;;;;5152353;27;20963;-60
2024/02/22 08:25:55;;;;;;;0.40;0.20;;;10.20;99.90;;;;;;5152427;27;20433;-58
2024/02/22 08:28:23;;;;;;;0.50;0.20;;;10.20;99.90;;;;;;5135944;27;20648;-57
2024/02/22 08:30:50;;;;;;;0.40;0.20;;;10.20;99.90;;;;;;5122653;28;20519;-58
2024/02/22 08:33:17;;;;;;;0.40;0.20;;;10.40;99.90;;;;;;5112014;28;20429;-58
2024/02/22 08:35:44;;;;;;;0.30;0.10;;;10.30;98.10;;;;;;5138056;27;20696;-58
2024/02/22 08:38:12;;;;;;;0.30;0.15;;;10.20;99.90;;;;;;5153778;27;20513;-58
2024/02/22 08:40:39;;;;;;;0.50;0.20;;;10.20;99.90;;;;;;5153197;27;20417;-58
2024/02/22 08:43:08;;;;;;;0.40;0.10;;;10.20;99.90;;;;;;5152150;27;20421;-58
2024/02/22 08:45:35;;;;;;;0.38;0.20;;;10.20;99.90;;;;;;5118343;28;20456;-59
2024/02/22 08:48:02;;;;;;;0.40;0.20;;;10.20;99.90;;;;;;5117941;28;20518;-58
2024/02/22 08:50:29;;;;;;;0.47;0.10;;;10.20;99.90;;;;;;5117109;28;20507;-58
2024/02/22 08:52:57;;;;;;;0.40;0.20;;;10.30;99.90;;;;;;5116898;28;20506;-59
2024/02/22 08:55:24;;;;;;;0.80;0.10;;;10.30;99.90;;;;;;5116026;28;20520;-58
2024/02/22 08:57:51;;;;;;;0.40;0.10;;;10.30;99.90;;;;;;5114901;28;20510;-58
2024/02/22 09:00:20;;;;;;;0.40;0.20;;;10.40;99.90;;;;;;5114748;28;20717;-59
2024/02/22 09:02:48;;;;;;;0.40;0.20;;;10.50;99.50;;;;;;5116297;28;20460;-59
2024/02/22 09:05:15;;;;;;;0.30;0.10;;;10.60;99.80;;;;;;5115782;28;20822;-58
2024/02/22 09:07:42;;;;;;;0.40;0.10;;;10.60;59.20;;;;;;5115786;28;20466;-58
2024/02/22 09:10:10;;;;;;;0.40;0.10;;;10.70;48.80;;;;;;5117520;28;20879;-59
2024/02/22 09:12:40;;;;;;;0.47;0.20;;;10.70;66.00;;;;;;5118013;28;20815;-58
2024/02/22 09:15:08;;;;;;;0.70;0.10;;;10.70;56.30;;;;;;5118811;28;20424;-58
2024/02/22 09:17:37;;;;;;;0.40;0.10;;;10.70;36.00;;;;;;5117878;28;20674;-59
2024/02/22 09:20:05;;;;;;;0.30;0.10;;;10.70;46.40;;;;;;5127432;27;20522;-58
2024/02/22 09:22:32;;;;;;;0.30;0.10;;;10.80;46.50;;;;;;5135262;27;20521;-59
2024/02/22 09:25:00;;;;;;;0.30;0.20;;;10.80;39.60;;;;;;5138898;27;20493;-59
2024/02/22 09:27:28;;;;;;;0.30;0.10;;;10.70;29.70;;;;;;5139045;27;20418;-58
2024/02/22 09:29:58;;;;;;;0.40;0.20;;;10.80;32.60;;;;;;5138514;27;20454;-59
2024/02/22 09:32:25;;;;;;;0.30;0.10;;;10.70;28.30;;;;;;5137162;27;20724;-58
2024/02/22 09:34:53;;;;;;;0.50;0.20;;;10.70;33.20;;;;;;5136553;27;20505;-58
2024/02/22 09:37:20;;;;;;;0.57;0.20;;;10.90;44.10;;;;;;5137398;27;20419;-58
2024/02/22 09:39:50;;;;;;;0.40;0.10;;;10.90;34.60;;;;;;5137980;27;20477;-58
2024/02/22 09:42:18;;;;;;;0.30;0.10;;;10.80;33.30;;;;;;5137927;27;20521;-61
2024/02/22 09:44:46;;;;;;;0.30;0.10;;;10.90;59.00;;;;;;5126441;27;20432;-60
2024/02/22 09:47:16;;;;;;;0.75;0.17;;;10.90;71.10;;;;;;5117804;28;20434;-60
2024/02/22 09:49:43;;;;;;;0.57;0.20;;;10.90;48.70;;;;;;5118256;28;20888;-60
2024/02/22 09:52:14;;;;;;;0.40;0.10;;;10.90;77.90;;;;;;5118309;28;20413;-60
2024/02/22 09:54:43;;;;;;;0.40;0.10;;;10.90;53.40;;;;;;5134641;27;20426;-60
2024/02/22 09:57:10;;;;;;;0.50;0.10;;;11.00;55.20;;;;;;5137971;27;20423;-60
2024/02/22 09:59:37;;;;;;;0.40;0.20;;;11.00;53.70;;;;;;5139174;27;20673;-60
2024/02/22 10:02:06;;;;;;;0.47;0.10;;;11.00;46.40;;;;;;5138631;27;20468;-60
2024/02/22 10:04:34;;;;;;;0.30;0.10;;;11.00;20.90;;;;;;5138396;27;20426;-60
2024/02/22 10:07:01;;;;;;;0.30;0.10;;;11.20;28.40;;;;;;5129853;27;20411;-60
2024/02/22 10:09:30;;;;;;;0.30;0.10;;;11.20;6.30;;;;;;5137990;27;20495;-60
2024/02/22 10:11:56;;;;;;;0.40;0.20;;;11.30;29.70;;;;;;5137637;27;20453;-60
2024/02/22 10:14:24;;;;;;;0.40;0.10;;;11.40;35.90;;;;;;5128105;27;20507;-62
2024/02/22 10:16:51;;;;;;;0.30;0.10;;;11.50;11.40;;;;;;5116294;28;20417;-59
2024/02/22 10:19:18;;;;;;;0.40;0.10;;;11.50;1.00;;;;;;5115167;28;20502;-60
2024/02/22 10:21:46;;;;;;;0.30;0.10;;;11.50;1.00;;;;;;5116491;28;20438;-60
2024/02/22 10:24:13;;;;;;;0.30;0.10;;;11.50;1.00;;;;;;5115494;28;20849;-60
2024/02/22 10:26:41;;;;;;;0.30;0.10;;;11.60;1.00;;;;;;5117057;28;20478;-60
2024/02/22 10:29:12;;;;;;;0.30;0.10;;;11.70;1.00;;;;;;5115750;28;20424;-60
2024/02/22 10:31:46;;;;;;;0.35;0.10;;;11.70;1.00;;;;;;5115024;28;20444;-61
2024/02/22 10:34:13;;;;;;;0.40;0.10;;;11.60;1.00;;;;;;5115008;28;20499;-60
2024/02/22 10:36:42;;;;;;;0.30;0.10;;;11.60;1.00;;;;;;5115913;28;20424;-60
2024/02/22 10:39:09;;;;;;;0.40;0.10;;;11.60;1.00;;;;;;5116810;28;20435;-60
2024/02/22 10:41:37;;;;;;;0.30;0.10;;;11.50;1.00;;;;;;5116802;28;20518;-60
2024/02/22 10:44:06;;;;;;;0.30;0.10;;;11.60;1.00;;;;;;5116518;28;20436;-60
2024/02/22 10:46:36;;;;;;;0.30;0.10;;;11.60;1.00;;;;;;5117313;28;20752;-60
2024/02/22 10:49:07;;;;;;;0.40;0.13;;;11.60;1.00;;;;;;5117002;28;20448;-60
2024/02/22 10:51:35;;;;;;;0.30;0.10;;;11.70;1.00;;;;;;5131361;27;20430;-60
2024/02/22 10:54:04;;;;;;;0.30;0.10;;;11.50;1.00;;;;;;5137398;27;20850;-60
2024/02/22 10:56:34;;;;;;;0.30;0.10;;;11.40;14.40;;;;;;5137012;27;20422;-60
2024/02/22 10:59:04;;;;;;;0.30;0.10;;;11.40;15.60;;;;;;5136407;27;20514;-60
2024/02/22 11:01:33;;;;;;;0.30;0.10;;;11.40;29.90;;;;;;5136556;27;20424;-60
2024/02/22 11:04:02;;;;;;;0.30;0.10;;;11.40;43.60;;;;;;5135508;27;20859;-60
2024/02/22 11:06:29;;;;;;;0.60;0.10;;;11.40;42.30;;;;;;5135967;27;20434;-59
2024/02/22 11:09:01;;;;;;;0.30;0.10;;;11.40;54.90;;;;;;5136939;27;20517;-59
2024/02/22 11:11:29;;;;;;;1.00;0.10;;;11.30;58.40;;;;;;5137069;27;20428;-59
2024/02/22 11:13:58;;;;;;;0.60;0.10;;;11.20;94.40;;;;;;5131333;27;20747;-59
2024/02/22 11:16:34;;;;;;;0.40;0.10;;;11.20;95.20;;;;;;5115692;28;20400;-59
2024/02/22 11:19:09;;;;;;;0.30;0.10;;;11.20;99.90;;;;;;5116138;28;20412;-59
2024/02/22 11:21:38;;;;;;;0.40;0.10;;;11.20;99.90;;;;;;5116670;28;20446;-59
2024/02/22 11:24:09;;;;;;;0.60;0.10;;;11.20;99.90;;;;;;5116182;28;20831;-59
2024/02/22 11:26:36;;;;;;;0.38;0.10;;;11.00;99.90;;;;;;5115704;28;20507;-59
2024/02/22 11:29:03;;;;;;;0.50;0.10;;;11.10;99.90;;;;;;5115288;28;20515;-59
2024/02/22 11:31:30;;;;;;;0.30;0.10;;;11.10;99.90;;;;;;5113940;28;20420;-60
2024/02/22 11:34:01;;;;;;;0.50;0.10;;;11.00;99.90;;;;;;5115393;28;20412;-60
2024/02/22 11:36:31;;;;;;;0.50;0.10;;;10.90;99.90;;;;;;5114774;28;20871;-59
2024/02/22 11:39:01;;;;;;;0.40;0.20;;;11.00;99.90;;;;;;5114071;28;20782;-57
2024/02/22 11:41:30;;;;;;;0.40;0.10;;;11.00;99.90;;;;;;5113496;28;20428;-58
2024/02/22 11:44:04;;;;;;;0.40;0.10;;;10.90;99.90;;;;;;5113837;28;20436;-56
2024/02/22 11:46:34;;;;;;;0.30;0.10;;;10.90;99.90;;;;;;5115967;28;20424;-57
2024/02/22 11:49:03;;;;;;;0.30;0.10;;;10.80;99.90;;;;;;5116093;28;20442;-55
2024/02/22 11:51:30;;;;;;;0.40;0.20;;;10.80;99.90;;;;;;5115402;28;20493;-56
2024/02/22 11:53:57;;;;;;;0.40;0.10;;;10.90;99.90;;;;;;5126469;28;20460;-53
2024/02/22 11:56:24;;;;;;;0.38;0.10;;;10.90;99.90;;;;;;5136063;28;20419;-57
2024/02/22 11:58:51;;;;;;;0.30;0.10;;;11.00;99.90;;;;;;5119887;28;20498;-57
2024/02/22 12:01:19;;;;;;;0.30;0.10;;;11.20;99.90;;;;;;5135476;28;20411;-57
2024/02/22 12:03:47;;;;;;;0.30;0.10;;;11.40;99.90;;;;;;5123768;28;20432;-58
2024/02/22 12:06:15;;;;;;;0.30;0.10;;;11.50;99.90;;;;;;5116048;28;20794;-61
2024/02/22 12:08:43;;;;;;;0.55;0.10;;;11.70;99.90;;;;;;5116062;28;20492;-58
2024/02/22 12:11:10;;;;;;;0.35;0.10;;;11.80;99.90;;;;;;5115758;28;20518;-58
2024/02/22 12:13:37;;;;;;;0.60;0.10;;;12.00;99.90;;;;;;5112855;28;20501;-58
2024/02/22 12:16:08;;;;;;;0.35;0.10;;;12.10;40.10;;;;;;5113969;28;20502;-58
2024/02/22 12:18:35;;;;;;;0.70;0.10;;;12.00;34.30;;;;;;5115910;28;20496;-58
2024/02/22 12:21:03;;;;;;;0.50;0.10;;;12.00;23.60;;;;;;5119820;28;20443;-58
2024/02/22 12:23:32;;;;;;;0.30;0.10;;;12.00;13.60;;;;;;5118527;28;20467;-58
2024/02/22 12:26:06;;;;;;;0.40;0.10;;;12.00;25.30;;;;;;5119582;28;20452;-59
2024/02/22 12:28:33;;;;;;;0.60;0.10;;;12.00;8.70;;;;;;5119132;28;20420;-59
2024/02/22 12:31:00;;;;;;;0.30;0.10;;;11.90;20.50;;;;;;5117146;28;20507;-60
2024/02/22 12:33:27;;;;;;;0.30;0.10;;;11.90;1.00;;;;;;5118749;28;20458;-59
2024/02/22 12:35:56;;;;;;;0.30;0.10;;;11.90;1.00;;;;;;5118982;28;20431;-60
2024/02/22 12:38:24;;;;;;;0.40;0.10;;;11.90;1.00;;;;;;5118368;28;20424;-60
2024/02/22 12:40:52;;;;;;;0.80;0.10;;;12.00;5.30;;;;;;5117139;28;20448;-59
2024/02/22 12:43:19;;;;;;;0.40;0.10;;;11.90;1.00;;;;;;5117712;28;20416;-61
2024/02/22 12:45:49;;;;;;;0.77;0.10;;;12.00;1.00;;;;;;5119207;28;20726;-59
2024/02/22 12:48:16;;;;;;;0.40;0.10;;;12.00;1.00;;;;;;5119338;28;20430;-61
2024/02/22 12:50:43;;;;;;;1.40;0.20;;;11.90;1.00;;;;;;5119223;28;20434;-59
2024/02/22 12:53:10;;;;;;;0.30;0.10;;;12.00;1.00;;;;;;5119330;28;20459;-60
2024/02/22 12:55:37;;;;;;;0.30;0.10;;;12.00;1.00;;;;;;5118359;28;20894;-59
2024/02/22 12:58:05;;;;;;;0.40;0.10;;;12.10;1.00;;;;;;5119551;28;20408;-58